createdAt,value
2019-05-05T00:02:34.257Z,100796.44
2019-05-05T00:05:19.515Z,100797.69
2019-05-05T00:07:55.468Z,100802.31
2019-05-05T00:10:34.757Z,100806.45
2019-05-05T00:13:15.015Z,100809.34
2019-05-05T00:15:59.353Z,100811.19
2019-05-05T00:18:34.681Z,100809.08
2019-05-05T00:21:09.706Z,100819.77
2019-05-05T00:23:45.156Z,100820.83
2019-05-05T00:26:21.646Z,100821.86
2019-05-05T00:28:57.940Z,100823.22
2019-05-05T00:31:34.895Z,100829.47
2019-05-05T00:34:10.806Z,100815.52
2019-05-05T00:36:46.474Z,100831.96
2019-05-05T00:39:21.492Z,100837.38
2019-05-05T00:41:56.515Z,100837.83
2019-05-05T00:44:32.443Z,100839.67
2019-05-05T00:47:19.067Z,100840.18
2019-05-05T00:49:56.328Z,100835.34
2019-05-05T00:52:31.308Z,100840.31
2019-05-05T00:55:07.980Z,100834.23
2019-05-05T00:57:45.342Z,100844.13
2019-05-05T01:00:24.516Z,100841.05
2019-05-05T01:02:59.830Z,100841.50
2019-05-05T01:05:36.529Z,100842.86
2019-05-05T01:08:14.408Z,100846.41
2019-05-05T01:10:49.865Z,100843.81
2019-05-05T01:13:24.942Z,100849.20
2019-05-05T01:16:00.078Z,100850.56
2019-05-05T01:18:35.302Z,100851.03
2019-05-05T01:21:10.450Z,100855.59
2019-05-05T01:23:45.696Z,100860.53
2019-05-05T01:26:20.926Z,100868.64
2019-05-05T01:28:56.375Z,100873.45
2019-05-05T01:31:34.648Z,100876.64
2019-05-05T01:34:18.901Z,100878.52
2019-05-05T01:36:55.663Z,100885.60
2019-05-05T01:39:35.431Z,100889.74
2019-05-05T01:42:17.389Z,100896.03
2019-05-05T01:44:52.694Z,100896.95
2019-05-05T01:47:27.723Z,100906.28
2019-05-05T01:50:15.194Z,100916.53
2019-05-05T01:52:39.652Z,100912.16
2019-05-05T01:55:14.951Z,100916.59
2019-05-05T01:57:51.484Z,100928.23
2019-05-05T02:00:26.833Z,100934.47
2019-05-05T02:03:02.136Z,100938.86
2019-05-05T02:05:38.173Z,100938.42
2019-05-05T02:08:15.308Z,100943.35
2019-05-05T02:10:50.592Z,100943.77
2019-05-05T02:13:25.714Z,100943.77
2019-05-05T02:16:01.226Z,100945.56
2019-05-05T02:18:38.075Z,100953.98
2019-05-05T02:21:14.263Z,100945.56
2019-05-05T02:23:50.594Z,100949.11
2019-05-05T02:26:25.646Z,100947.39
2019-05-05T02:29:04.756Z,100948.77
2019-05-05T02:31:41.049Z,100957.22
2019-05-05T02:34:16.559Z,100958.99
2019-05-05T02:36:52.728Z,100960.34
2019-05-05T02:39:27.752Z,100956.86
2019-05-05T02:42:05.750Z,100960.95
2019-05-05T02:44:40.256Z,100967.60
2019-05-05T02:47:19.991Z,100967.12
2019-05-05T02:49:57.044Z,100969.34
2019-05-05T02:52:34.689Z,100976.43
2019-05-05T02:55:11.371Z,100988.50
2019-05-05T02:57:47.803Z,100988.50
2019-05-05T03:00:24.761Z,100985.06
2019-05-05T03:03:01.502Z,100993.45
2019-05-05T03:05:36.535Z,100988.23
2019-05-05T03:08:13.740Z,100999.30
2019-05-05T03:10:48.538Z,101000.27
2019-05-05T03:13:24.401Z,100997.63
2019-05-05T03:16:15.977Z,101002.11
2019-05-05T03:18:52.126Z,101002.14
2019-05-05T03:21:27.697Z,101014.51
2019-05-05T03:24:03.729Z,101016.63
2019-05-05T03:26:41.464Z,101017.52
2019-05-05T03:29:18.496Z,101025.09
2019-05-05T03:31:56.353Z,101019.53
2019-05-05T03:34:31.626Z,101030.95
2019-05-05T03:37:07.196Z,101031.83
2019-05-05T03:39:44.535Z,101033.16
2019-05-05T03:42:22.038Z,101032.71
2019-05-05T03:44:59.877Z,101038.08
2019-05-05T03:47:37.242Z,101041.20
2019-05-05T03:50:14.480Z,101042.92
2019-05-05T03:52:49.649Z,101043.83
2019-05-05T03:55:25.961Z,101052.22
2019-05-05T03:58:01.050Z,101060.58
2019-05-05T04:00:54.935Z,101064.03
2019-05-05T04:03:31.050Z,101061.72
2019-05-05T04:06:08.167Z,101060.80
2019-05-05T04:08:45.359Z,101060.80
2019-05-05T04:11:20.733Z,101066.02
2019-05-05T04:13:57.084Z,101068.27
2019-05-05T04:16:37.591Z,101073.05
2019-05-05T04:19:14.272Z,101073.05
2019-05-05T04:21:49.301Z,101075.18
2019-05-05T04:24:24.446Z,101085.27
2019-05-05T04:27:00.433Z,101086.53
2019-05-05T04:29:35.747Z,101086.92
2019-05-05T04:32:10.782Z,101091.33
2019-05-05T04:34:46.154Z,101090.84
2019-05-05T04:37:23.944Z,101098.66
2019-05-05T04:39:59.197Z,101094.63
2019-05-05T04:42:34.256Z,101093.64
2019-05-05T04:45:09.879Z,101098.83
2019-05-05T04:47:51.084Z,101101.37
2019-05-05T04:50:45.302Z,101107.89
2019-05-05T04:53:23.985Z,101100.67
2019-05-05T04:55:59.933Z,101102.75
2019-05-05T04:58:35.268Z,101102.01
2019-05-05T05:01:10.626Z,101088.66
2019-05-05T05:03:54.297Z,101104.91
2019-05-05T05:06:31.355Z,101082.36
2019-05-05T05:09:07.352Z,101082.36
2019-05-05T05:11:44.311Z,101095.91
2019-05-05T05:14:21.056Z,101099.02
2019-05-05T05:16:57.901Z,101094.48
2019-05-05T05:19:33.572Z,101101.48
2019-05-05T05:22:09.770Z,101105.77
2019-05-05T05:24:45.850Z,101103.39
2019-05-05T05:27:20.878Z,101105.91
2019-05-05T05:29:56.025Z,101104.76
2019-05-05T05:32:33.843Z,101109.41
2019-05-05T05:35:08.777Z,101102.18
2019-05-05T05:37:46.161Z,101109.59
2019-05-05T05:40:26.634Z,101113.91
2019-05-05T05:43:04.695Z,101121.67
2019-05-05T05:45:44.649Z,101104.17
2019-05-05T05:48:31.131Z,101114.80
2019-05-05T05:51:11.406Z,101114.17
2019-05-05T05:53:46.715Z,101117.90
2019-05-05T05:56:21.903Z,101123.12
2019-05-05T05:58:57.084Z,101128.66
2019-05-05T06:01:34.436Z,101131.55
2019-05-05T06:04:09.571Z,101132.18
2019-05-05T06:06:44.994Z,101141.19
2019-05-05T06:09:21.484Z,101141.51
2019-05-05T06:11:56.566Z,101141.51
2019-05-05T06:14:33.862Z,101144.55
2019-05-05T06:17:13.603Z,101151.67
2019-05-05T06:19:48.653Z,101152.64
2019-05-05T06:22:29.363Z,101154.27
2019-05-05T06:25:00.620Z,101157.59
2019-05-05T06:27:36.860Z,101152.91
2019-05-05T06:30:13.801Z,101161.50
2019-05-05T06:32:49.279Z,101160.78
2019-05-05T06:35:24.601Z,101157.70
2019-05-05T06:37:59.909Z,101156.36
2019-05-05T06:40:36.610Z,101155.75
2019-05-05T06:43:17.881Z,101158.94
2019-05-05T06:45:57.755Z,101168.05
2019-05-05T06:48:34.350Z,101167.98
2019-05-05T06:51:09.825Z,101173.03
2019-05-05T06:53:44.969Z,101175.58
2019-05-05T06:56:20.246Z,101172.22
2019-05-05T06:58:55.615Z,101176.19
2019-05-05T07:01:33.757Z,101174.20
2019-05-05T07:04:09.784Z,101170.92
2019-05-05T07:06:54.079Z,101173.48
2019-05-05T07:09:25.808Z,101165.25
2019-05-05T07:12:01.243Z,101162.41
2019-05-05T07:14:36.442Z,101166.00
2019-05-05T07:17:13.906Z,101162.34
2019-05-05T07:19:48.559Z,101167.38
2019-05-05T07:22:24.435Z,101160.34
2019-05-05T07:24:59.605Z,101155.00
2019-05-05T07:27:34.746Z,101145.75
2019-05-05T07:30:10.331Z,101143.58
2019-05-05T07:32:45.580Z,101134.08
2019-05-05T07:35:53.390Z,101133.69
2019-05-05T07:38:16.633Z,101130.67
2019-05-05T07:40:54.369Z,101132.09
2019-05-05T07:43:29.298Z,101123.92
2019-05-05T07:46:04.617Z,101133.69
2019-05-05T07:48:40.174Z,101126.96
2019-05-05T07:51:15.623Z,101131.89
2019-05-05T07:53:51.018Z,101128.20
2019-05-05T07:56:27.436Z,101130.75
2019-05-05T07:59:03.794Z,101141.87
2019-05-05T08:01:43.276Z,101147.33
2019-05-05T08:04:19.688Z,101146.34
2019-05-05T08:06:56.372Z,101147.46
2019-05-05T08:09:33.820Z,101141.54
2019-05-05T08:12:11.051Z,101150.09
2019-05-05T08:14:48.257Z,101143.89
2019-05-05T08:17:44.846Z,101144.78
2019-05-05T08:20:28.672Z,101142.06
2019-05-05T08:23:08.156Z,101148.17
2019-05-05T08:25:51.256Z,101149.51
2019-05-05T08:28:31.279Z,101149.80
2019-05-05T08:31:14.566Z,101150.38
2019-05-05T08:33:50.036Z,101154.58
2019-05-05T08:36:26.330Z,101160.90
2019-05-05T08:39:03.735Z,101160.00
2019-05-05T08:41:40.737Z,101152.47
2019-05-05T08:44:18.121Z,101143.77
2019-05-05T08:46:54.284Z,101142.96
2019-05-05T08:49:30.588Z,101147.45
2019-05-05T08:52:07.288Z,101140.59
2019-05-05T08:54:44.481Z,101152.02
2019-05-05T08:57:19.931Z,101164.03
2019-05-05T08:59:57.033Z,101168.20
2019-05-05T09:02:36.169Z,101176.96
2019-05-05T09:05:14.475Z,101177.17
2019-05-05T09:07:51.015Z,101189.67
2019-05-05T09:10:28.323Z,101177.62
2019-05-05T09:13:04.636Z,101173.81
2019-05-05T09:15:40.018Z,101171.55
2019-05-05T09:18:16.670Z,101163.27
2019-05-05T09:20:57.419Z,101163.98
2019-05-05T09:23:34.735Z,101155.10
2019-05-05T09:26:13.698Z,101153.61
2019-05-05T09:29:00.168Z,101162.80
2019-05-05T09:31:35.563Z,101168.27
2019-05-05T09:34:16.090Z,101180.47
2019-05-05T09:36:54.458Z,101179.98
2019-05-05T09:39:31.608Z,101171.23
2019-05-05T09:42:08.127Z,101177.56
2019-05-05T09:44:45.768Z,101188.84
2019-05-05T09:47:20.979Z,101195.52
2019-05-05T09:49:57.263Z,101206.80
2019-05-05T09:52:33.807Z,101197.59
2019-05-05T09:55:09.383Z,101198.28
2019-05-05T09:57:44.457Z,101198.98
2019-05-05T10:00:20.939Z,101194.69
2019-05-05T10:02:56.130Z,101183.88
2019-05-05T10:05:31.336Z,101180.28
2019-05-05T10:08:06.709Z,101171.30
2019-05-05T10:10:44.058Z,101176.30
2019-05-05T10:13:20.001Z,101179.23
2019-05-05T10:15:56.309Z,101180.47
2019-05-05T10:18:35.825Z,101172.95
2019-05-05T10:21:13.927Z,101166.50
2019-05-05T10:23:55.775Z,101161.25
2019-05-05T10:26:31.019Z,101156.44
2019-05-05T10:29:13.662Z,101153.44
2019-05-05T10:31:50.138Z,101166.16
2019-05-05T10:34:25.556Z,101164.00
2019-05-05T10:37:04.038Z,101175.20
2019-05-05T10:39:40.784Z,101162.74
2019-05-05T10:42:26.101Z,101159.28
2019-05-05T10:45:01.501Z,101166.69
2019-05-05T10:47:39.703Z,101180.25
2019-05-05T10:50:15.037Z,101182.44
2019-05-05T10:52:50.306Z,101186.52
2019-05-05T10:55:25.551Z,101185.63
2019-05-05T10:58:05.012Z,101185.36
2019-05-05T11:00:44.371Z,101184.27
2019-05-05T11:03:20.347Z,101185.42
2019-05-05T11:05:59.926Z,101171.82
2019-05-05T11:08:35.199Z,101161.31
2019-05-05T11:11:13.675Z,101157.27
2019-05-05T11:13:50.188Z,101163.91
2019-05-05T11:16:25.747Z,101173.95
2019-05-05T11:19:04.323Z,101173.58
2019-05-05T11:21:39.927Z,101175.20
2019-05-05T11:24:16.089Z,101184.48
2019-05-05T11:26:53.922Z,101190.39
2019-05-05T11:29:29.006Z,101195.20
2019-05-05T11:32:05.742Z,101195.57
2019-05-05T11:34:40.995Z,101192.95
2019-05-05T11:37:18.248Z,101191.22
2019-05-05T11:39:56.440Z,101178.12
2019-05-05T11:42:34.309Z,101166.89
2019-05-05T11:45:11.396Z,101167.16
2019-05-05T11:47:46.849Z,101161.98
2019-05-05T11:50:23.817Z,101172.41
2019-05-05T11:52:59.265Z,101180.97
2019-05-05T11:55:34.468Z,101182.66
2019-05-05T11:58:10.009Z,101186.97
2019-05-05T12:00:45.343Z,101177.47
2019-05-05T12:03:20.470Z,101168.59
2019-05-05T12:05:56.326Z,101178.59
2019-05-05T12:08:31.493Z,101187.97
2019-05-05T12:11:08.017Z,101187.41
2019-05-05T12:13:43.889Z,101193.34
2019-05-05T12:16:20.896Z,101197.44
2019-05-05T12:18:55.983Z,101196.99
2019-05-05T12:21:33.608Z,101194.28
2019-05-05T12:24:10.215Z,101191.98
2019-05-05T12:26:48.141Z,101189.41
2019-05-05T12:29:25.971Z,101179.70
2019-05-05T12:32:02.487Z,101182.49
2019-05-05T12:34:38.141Z,101185.91
2019-05-05T12:37:14.241Z,101201.64
2019-05-05T12:39:54.641Z,101196.81
2019-05-05T12:42:30.144Z,101194.91
2019-05-05T12:45:09.341Z,101189.05
2019-05-05T12:48:04.563Z,101186.59
2019-05-05T12:50:44.284Z,101182.86
2019-05-05T12:53:20.702Z,101177.36
2019-05-05T12:55:57.407Z,101178.84
2019-05-05T12:58:33.558Z,101177.26
2019-05-05T13:01:10.993Z,101172.79
2019-05-05T13:03:46.891Z,101173.55
2019-05-05T13:06:24.121Z,101174.41
2019-05-05T13:08:59.508Z,101171.22
2019-05-05T13:11:35.421Z,101182.44
2019-05-05T13:14:10.540Z,101182.44
2019-05-05T13:16:52.940Z,101181.24
2019-05-05T13:19:27.785Z,101191.59
2019-05-05T13:22:16.226Z,101192.30
2019-05-05T13:24:56.671Z,101185.66
2019-05-05T13:27:34.430Z,101186.67
2019-05-05T13:30:10.952Z,101176.86
2019-05-05T13:32:46.206Z,101160.89
2019-05-05T13:35:24.472Z,101159.63
2019-05-05T13:38:00.796Z,101149.92
2019-05-05T13:40:43.905Z,101150.84
2019-05-05T13:43:21.163Z,101165.96
2019-05-05T13:46:09.643Z,101169.83
2019-05-05T13:48:44.875Z,101176.86
2019-05-05T13:51:23.963Z,101181.12
2019-05-05T13:53:59.731Z,101187.03
2019-05-05T13:56:35.856Z,101186.33
2019-05-05T13:59:14.089Z,101184.86
2019-05-05T14:01:49.434Z,101196.98
2019-05-05T14:04:24.979Z,101194.45
2019-05-05T14:07:00.288Z,101194.06
2019-05-05T14:09:35.671Z,101196.13
2019-05-05T14:12:10.844Z,101195.97
2019-05-05T14:14:46.553Z,101200.11
2019-05-05T14:17:21.703Z,101195.06
2019-05-05T14:20:04.753Z,101193.22
2019-05-05T14:22:34.520Z,101195.39
2019-05-05T14:25:13.553Z,101192.63
2019-05-05T14:27:54.112Z,101190.11
2019-05-05T14:30:43.495Z,101187.78
2019-05-05T14:33:20.007Z,101189.83
2019-05-05T14:36:00.703Z,101187.52
2019-05-05T14:38:38.506Z,101190.27
2019-05-05T14:41:13.893Z,101191.67
2019-05-05T14:43:49.429Z,101190.70
2019-05-05T14:46:24.479Z,101193.56
2019-05-05T14:48:59.856Z,101194.19
2019-05-05T14:51:37.232Z,101192.24
2019-05-05T14:54:14.620Z,101192.01
2019-05-05T14:56:50.140Z,101194.16
2019-05-05T14:59:25.569Z,101189.69
2019-05-05T15:02:00.859Z,101181.38
2019-05-05T15:04:38.731Z,101183.84
2019-05-05T15:07:25.952Z,101164.84
2019-05-05T15:10:04.254Z,101164.84
2019-05-05T15:12:41.270Z,101180.81
2019-05-05T15:15:17.692Z,101181.39
2019-05-05T15:17:53.672Z,101188.71
2019-05-05T15:20:29.313Z,101183.16
2019-05-05T15:23:04.838Z,101185.95
2019-05-05T15:25:41.059Z,101187.27
2019-05-05T15:28:16.330Z,101180.80
2019-05-05T15:30:54.517Z,101187.40
2019-05-05T15:33:30.909Z,101182.91
2019-05-05T15:36:07.120Z,101186.77
2019-05-05T15:38:43.798Z,101186.62
2019-05-05T15:41:19.493Z,101187.48
2019-05-05T15:43:54.659Z,101178.88
2019-05-05T15:46:29.749Z,101174.66
2019-05-05T15:49:04.830Z,101179.36
2019-05-05T15:51:41.112Z,101179.36
2019-05-05T15:54:16.565Z,101173.92
2019-05-05T15:57:04.886Z,101170.38
2019-05-05T15:59:30.551Z,101175.78
2019-05-05T16:02:06.107Z,101174.14
2019-05-05T16:04:41.308Z,101171.13
2019-05-05T16:07:16.638Z,101177.13
2019-05-05T16:09:56.414Z,101169.56
2019-05-05T16:12:36.532Z,101175.81
2019-05-05T16:15:31.947Z,101173.33
2019-05-05T16:18:08.934Z,101168.22
2019-05-05T16:20:45.665Z,101172.05
2019-05-05T16:23:35.691Z,101169.73
2019-05-05T16:26:31.665Z,101167.02
2019-05-05T16:29:07.940Z,101169.05
2019-05-05T16:31:44.580Z,101173.47
2019-05-05T16:34:19.812Z,101174.04
2019-05-05T16:36:57.071Z,101175.69
2019-05-05T16:39:33.593Z,101173.91
2019-05-05T16:42:08.806Z,101172.56
2019-05-05T16:44:46.291Z,101171.45
2019-05-05T16:47:21.722Z,101168.97
2019-05-05T16:49:56.955Z,101165.21
2019-05-05T16:52:33.946Z,101163.63
2019-05-05T16:55:18.402Z,101180.33
2019-05-05T16:57:55.133Z,101174.01
2019-05-05T17:00:32.039Z,101173.20
2019-05-05T17:03:07.368Z,101174.62
2019-05-05T17:05:44.150Z,101173.51
2019-05-05T17:08:21.028Z,101176.52
2019-05-05T17:10:57.346Z,101173.70
2019-05-05T17:13:40.615Z,101171.84
2019-05-05T17:16:23.847Z,101172.34
2019-05-05T17:19:04.425Z,101170.91
2019-05-05T17:21:44.587Z,101179.48
2019-05-05T17:24:20.132Z,101179.05
2019-05-05T17:26:55.266Z,101176.44
2019-05-05T17:29:31.623Z,101177.80
2019-05-05T17:32:06.721Z,101179.13
2019-05-05T17:34:42.131Z,101171.05
2019-05-05T17:37:18.085Z,101177.33
2019-05-05T17:39:58.424Z,101172.23
2019-05-05T17:42:43.978Z,101172.23
2019-05-05T17:45:28.263Z,101167.62
2019-05-05T17:48:08.203Z,101167.62
2019-05-05T17:50:53.923Z,101181.97
2019-05-05T17:53:30.908Z,101183.77
2019-05-05T17:56:08.094Z,101188.19
2019-05-05T17:58:44.474Z,101190.70
2019-05-05T18:01:21.120Z,101184.91
2019-05-05T18:03:56.317Z,101187.12
2019-05-05T18:06:34.381Z,101192.16
2019-05-05T18:09:18.868Z,101191.34
2019-05-05T18:11:58.022Z,101185.83
2019-05-05T18:14:50.291Z,101192.19
2019-05-05T18:17:25.763Z,101197.20
2019-05-05T18:20:01.021Z,101197.00
2019-05-05T18:22:37.433Z,101194.53
2019-05-05T18:25:14.979Z,101203.45
2019-05-05T18:27:50.129Z,101201.77
2019-05-05T18:30:25.269Z,101199.25
2019-05-05T18:33:00.647Z,101195.83
2019-05-05T18:35:35.747Z,101207.17
2019-05-05T18:38:11.329Z,101207.05
2019-05-05T18:40:47.145Z,101216.59
2019-05-05T18:43:24.303Z,101212.31
2019-05-05T18:46:04.718Z,101208.80
2019-05-05T18:48:40.376Z,101210.64
2019-05-05T18:51:15.505Z,101212.05
2019-05-05T18:53:50.721Z,101212.72
2019-05-05T18:56:28.003Z,101221.45
2019-05-05T18:59:06.198Z,101223.25
2019-05-05T19:01:54.507Z,101227.28
2019-05-05T19:04:31.552Z,101227.44
2019-05-05T19:07:08.614Z,101227.83
2019-05-05T19:09:51.810Z,101224.41
2019-05-05T19:12:21.069Z,101233.81
2019-05-05T19:14:56.389Z,101230.30
2019-05-05T19:17:31.833Z,101232.92
2019-05-05T19:20:10.542Z,101234.48
2019-05-05T19:22:46.140Z,101230.85
2019-05-05T19:25:21.444Z,101227.67
2019-05-05T19:27:56.668Z,101229.36
2019-05-05T19:30:35.758Z,101232.14
2019-05-05T19:33:13.411Z,101225.88
2019-05-05T19:35:48.880Z,101229.91
2019-05-05T19:38:23.998Z,101227.34
2019-05-05T19:41:01.235Z,101221.29
2019-05-05T19:43:38.361Z,101219.22
2019-05-05T19:46:15.903Z,101223.97
2019-05-05T19:48:54.054Z,101224.13
2019-05-05T19:51:29.897Z,101220.94
2019-05-05T19:54:05.291Z,101218.45
2019-05-05T19:56:41.629Z,101213.45
2019-05-05T19:59:16.795Z,101220.56
2019-05-05T20:01:53.988Z,101218.73
2019-05-05T20:04:29.649Z,101218.70
2019-05-05T20:07:04.709Z,101222.62
2019-05-05T20:09:40.114Z,101221.92
2019-05-05T20:12:16.522Z,101221.45
2019-05-05T20:14:54.240Z,101217.87
2019-05-05T20:17:35.062Z,101222.89
2019-05-05T20:20:10.599Z,101222.94
2019-05-05T20:22:45.656Z,101223.05
2019-05-05T20:25:20.696Z,101226.73
2019-05-05T20:27:57.711Z,101224.64
2019-05-05T20:30:34.249Z,101226.52
2019-05-05T20:33:14.558Z,101225.34
2019-05-05T20:35:53.732Z,101223.99
2019-05-05T20:38:37.157Z,101224.14
2019-05-05T20:41:29.959Z,101217.83
2019-05-05T20:44:06.025Z,101220.61
2019-05-05T20:46:41.326Z,101222.54
2019-05-05T20:49:16.424Z,101222.89
2019-05-05T20:51:51.473Z,101227.47
2019-05-05T20:54:26.707Z,101226.67
2019-05-05T20:57:01.767Z,101221.95
2019-05-05T20:59:37.896Z,101223.95
2019-05-05T21:02:13.705Z,101222.20
2019-05-05T21:04:48.888Z,101226.73
2019-05-05T21:07:26.489Z,101217.19
2019-05-05T21:10:01.387Z,101222.41
2019-05-05T21:12:42.636Z,101221.36
2019-05-05T21:15:16.520Z,101216.23
2019-05-05T21:17:54.134Z,101215.44
2019-05-05T21:20:29.619Z,101216.56
2019-05-05T21:23:17.789Z,101213.73
2019-05-05T21:25:55.921Z,101214.28
2019-05-05T21:28:33.679Z,101212.39
2019-05-05T21:31:09.229Z,101210.20
2019-05-05T21:33:45.241Z,101211.73
2019-05-05T21:36:20.728Z,101212.68
2019-05-05T21:38:56.533Z,101214.36
2019-05-05T21:41:33.829Z,101216.59
2019-05-05T21:44:08.582Z,101214.70
2019-05-05T21:46:45.262Z,101218.19
2019-05-05T21:49:20.642Z,101213.66
2019-05-05T21:51:57.346Z,101218.08
2019-05-05T21:54:40.565Z,101214.00
2019-05-05T21:57:17.279Z,101219.42
2019-05-05T21:59:57.865Z,101212.82
2019-05-05T22:02:29.343Z,101216.16
2019-05-05T22:05:06.507Z,101212.80
2019-05-05T22:07:42.080Z,101217.61
2019-05-05T22:10:17.189Z,101209.53
2019-05-05T22:12:54.266Z,101219.67
2019-05-05T22:15:29.489Z,101217.34
2019-05-05T22:18:06.241Z,101221.27
2019-05-05T22:20:46.041Z,101215.00
2019-05-05T22:23:21.349Z,101213.11
2019-05-05T22:25:56.400Z,101221.49
2019-05-05T22:28:33.651Z,101219.63
2019-05-05T22:31:08.489Z,101223.84
2019-05-05T22:33:44.724Z,101216.08
2019-05-05T22:36:21.282Z,101219.27
2019-05-05T22:38:57.409Z,101224.22
2019-05-05T22:41:33.741Z,101220.30
2019-05-05T22:44:09.050Z,101215.92
2019-05-05T22:46:44.733Z,101218.73
2019-05-05T22:49:19.926Z,101207.89
2019-05-05T22:51:55.014Z,101207.89
2019-05-05T22:54:30.216Z,101210.72
2019-05-05T22:57:05.299Z,101215.41
2019-05-05T22:59:40.502Z,101219.65
2019-05-05T23:02:17.439Z,101212.20
2019-05-05T23:05:10.628Z,101218.62
2019-05-05T23:07:46.064Z,101219.78
2019-05-05T23:10:23.441Z,101214.39
2019-05-05T23:12:58.130Z,101214.39
2019-05-05T23:15:35.176Z,101227.23
2019-05-05T23:18:11.902Z,101223.30
2019-05-05T23:21:10.784Z,101223.92
2019-05-05T23:24:00.689Z,101222.84
2019-05-05T23:26:37.520Z,101225.66
2019-05-05T23:29:12.933Z,101228.09
2019-05-05T23:31:48.197Z,101231.78
2019-05-05T23:34:24.319Z,101226.23
2019-05-05T23:36:59.797Z,101228.11
2019-05-05T23:39:35.172Z,101230.94
2019-05-05T23:42:10.681Z,101229.20
2019-05-05T23:44:47.755Z,101231.19
2019-05-05T23:47:24.794Z,101228.15
2019-05-05T23:50:00.087Z,101230.55
2019-05-05T23:52:36.122Z,101227.05
2019-05-05T23:55:11.422Z,101228.91
2019-05-05T23:57:48.670Z,101228.06
